Time;durP1;ratioP1;P1;durP2;ratioP2;P2;SDS_P1;SDS_P2;PMS_P1;PMS_P2;Temp;Humidity;BMP_temperature;BMP_pressure;BME280_temperature;BME280_humidity;BME280_pressure;Samples;Min_cycle;Max_cycle;Signal;HPM_P1;HPM_P2
2023/01/16 00:00:05;;;;;;;2.60;0.80;;;;;;;5.75;100.00;99528.25;5303108;28;20027;-74
2023/01/16 00:02:37;;;;;;;2.25;0.77;;;;;;;5.76;100.00;99529.94;5305202;28;20103;-76
2023/01/16 00:05:08;;;;;;;1.67;0.80;;;;;;;5.70;100.00;99512.25;5301396;28;20020;-76
2023/01/16 00:07:39;;;;;;;2.40;1.00;;;;;;;5.68;100.00;99503.75;5296412;28;20036;-75
2023/01/16 00:10:11;;;;;;;3.70;1.25;;;;;;;5.64;100.00;99497.19;5304258;28;20051;-77
2023/01/16 00:12:43;;;;;;;3.30;0.95;;;;;;;5.58;100.00;99507.16;5304779;28;20024;-77
2023/01/16 00:15:14;;;;;;;4.75;1.15;;;;;;;5.57;100.00;99509.91;5305278;28;20042;-77
2023/01/16 00:17:47;;;;;;;4.80;1.20;;;;;;;5.56;100.00;99510.81;5304238;28;20494;-76
2023/01/16 00:20:19;;;;;;;4.22;1.00;;;;;;;5.57;100.00;99508.13;5300037;28;20062;-75
2023/01/16 00:22:50;;;;;;;2.35;0.90;;;;;;;5.50;100.00;99501.81;5283841;28;20480;-75
2023/01/16 00:25:21;;;;;;;4.13;1.13;;;;;;;5.48;100.00;99485.50;5304969;28;20047;-76
2023/01/16 00:27:53;;;;;;;5.72;1.48;;;;;;;5.49;100.00;99500.16;5305040;28;20023;-75
2023/01/16 00:30:24;;;;;;;5.30;1.48;;;;;;;5.48;100.00;99490.69;5303725;28;20055;-77
2023/01/16 00:32:55;;;;;;;5.82;1.63;;;;;;;5.45;100.00;99485.75;5303341;28;20035;-75
2023/01/16 00:35:27;;;;;;;4.43;1.80;;;;;;;5.45;100.00;99479.75;5303264;28;20030;-75
2023/01/16 00:37:58;;;;;;;4.72;1.52;;;;;;;5.48;100.00;99490.69;5283457;28;20077;-77
2023/01/16 00:40:30;;;;;;;4.60;1.30;;;;;;;5.44;100.00;99472.91;5305346;28;20024;-75
2023/01/16 00:43:01;;;;;;;6.97;2.15;;;;;;;5.49;100.00;99481.13;5301408;28;20396;-76
2023/01/16 00:45:33;;;;;;;5.53;1.70;;;;;;;5.46;100.00;99471.84;5300026;28;20031;-77
2023/01/16 00:48:04;;;;;;;6.47;1.80;;;;;;;5.38;100.00;99461.28;5301731;28;20028;-76
2023/01/16 00:50:36;;;;;;;4.13;1.27;;;;;;;5.45;100.00;99464.97;5286887;28;20043;-76
2023/01/16 00:53:07;;;;;;;5.15;1.80;;;;;;;5.45;100.00;99469.34;5308948;28;20635;-77
2023/01/16 00:55:41;;;;;;;6.93;1.75;;;;;;;5.43;100.00;99456.50;5299471;28;20034;-75
2023/01/16 00:58:12;;;;;;;5.32;1.98;;;;;;;5.37;100.00;99449.25;5303303;28;20443;-78
2023/01/16 01:00:44;;;;;;;8.48;1.50;;;;;;;5.33;100.00;99446.06;5303892;28;20028;-78
2023/01/16 01:03:15;;;;;;;5.00;1.17;;;;;;;5.27;100.00;99436.22;5301581;28;20063;-75
2023/01/16 01:05:46;;;;;;;4.20;1.58;;;;;;;5.28;100.00;99432.69;5303184;28;20052;-75
2023/01/16 01:08:18;;;;;;;3.50;1.10;;;;;;;5.28;100.00;99427.47;5301617;28;20137;-77
2023/01/16 01:10:49;;;;;;;7.47;2.00;;;;;;;5.19;100.00;99415.28;5300087;28;20407;-75
2023/01/16 01:13:20;;;;;;;5.88;1.77;;;;;;;5.20;100.00;99416.13;5280171;28;20279;-77
2023/01/16 01:15:51;;;;;;;5.20;1.52;;;;;;;5.20;100.00;99418.72;5300087;28;20385;-75
2023/01/16 01:18:23;;;;;;;4.40;1.55;;;;;;;5.17;100.00;99414.59;5306702;28;20031;-76
2023/01/16 01:20:57;;;;;;;7.85;1.30;;;;;;;5.21;100.00;99410.78;5299205;28;20043;-77
2023/01/16 01:23:28;;;;;;;5.15;1.50;;;;;;;5.10;100.00;99406.50;5303396;28;20032;-77
2023/01/16 01:26:13;;;;;;;5.03;1.42;;;;;;;5.22;100.00;99396.84;5300331;28;20043;-75
2023/01/16 01:28:45;;;;;;;4.05;1.23;;;;;;;5.08;100.00;99403.22;5299469;28;20393;-75
2023/01/16 01:31:16;;;;;;;5.22;1.27;;;;;;;5.05;100.00;99387.09;5301246;28;20027;-75
2023/01/16 01:33:47;;;;;;;6.00;1.27;;;;;;;5.08;100.00;99386.84;5304224;28;20024;-77
2023/01/16 01:36:19;;;;;;;5.53;1.52;;;;;;;5.04;100.00;99365.50;5298990;28;20481;-75
2023/01/16 01:38:50;;;;;;;4.50;1.33;;;;;;;5.07;100.00;99382.56;5283048;28;20419;-76
2023/01/16 01:41:21;;;;;;;5.50;1.70;;;;;;;4.95;100.00;99358.50;5305546;28;20507;-75
2023/01/16 01:43:55;;;;;;;6.05;1.40;;;;;;;4.99;100.00;99359.06;5307122;28;20028;-76
2023/01/16 01:46:34;;;;;;;10.18;2.05;;;;;;;5.09;100.00;99354.72;5302314;28;20025;-76
2023/01/16 01:49:23;;;;;;;7.68;1.85;;;;;;;5.18;100.00;99340.13;5285257;28;20034;-77
2023/01/16 01:51:58;;;;;;;4.15;1.23;;;;;;;5.00;100.00;99325.19;5300616;28;20396;-77
2023/01/16 01:54:36;;;;;;;7.80;2.28;;;;;;;4.93;100.00;99328.44;5301889;28;20040;-76
2023/01/16 01:57:20;;;;;;;5.72;1.70;;;;;;;5.01;100.00;99323.41;5301585;28;20465;-76
2023/01/16 01:59:58;;;;;;;5.80;1.10;;;;;;;4.95;100.00;99316.97;5298788;28;20059;-75
2023/01/16 02:02:34;;;;;;;8.07;1.98;;;;;;;4.95;100.00;99309.19;5302519;28;20027;-75
2023/01/16 02:05:08;;;;;;;5.90;1.60;;;;;;;4.83;100.00;99298.06;5301627;28;20016;-77
2023/01/16 02:07:39;;;;;;;4.13;1.52;;;;;;;4.76;100.00;99301.31;5304216;28;20024;-75
2023/01/16 02:10:26;;;;;;;7.13;2.72;;;;;;;4.97;100.00;99299.50;5308596;28;20530;-76
2023/01/16 02:12:59;;;;;;;5.25;1.10;;;;;;;4.87;100.00;99296.03;5301460;28;20035;-77
2023/01/16 02:15:31;;;;;;;3.83;1.27;;;;;;;4.82;100.00;99290.44;5303851;28;20489;-77
2023/01/16 02:21:28;;;;;;;5.55;1.33;;;;;;;5.02;100.00;99267.94;5304635;28;20052;-77
2023/01/16 02:24:29;;;;;;;6.88;2.03;;;;;;;4.72;100.00;99259.25;5285076;28;20302;-77
2023/01/16 02:27:22;;;;;;;5.15;1.25;;;;;;;4.95;100.00;99265.06;5308155;28;20164;-76
2023/01/16 02:30:14;;;;;;;7.10;1.40;;;;;;;4.99;100.00;99256.06;5302794;28;20392;-76
2023/01/16 02:33:04;;;;;;;7.18;1.48;;;;;;;4.97;100.00;99242.41;5306403;28;20517;-76
2023/01/16 02:35:57;;;;;;;6.07;1.40;;;;;;;4.89;100.00;99239.66;5290000;28;20032;-76
2023/01/16 02:38:50;;;;;;;4.40;1.02;;;;;;;5.06;100.00;99225.19;5306815;28;20036;-77
2023/01/16 02:41:41;;;;;;;4.35;1.17;;;;;;;4.93;100.00;99212.50;5289399;28;20036;-76
2023/01/16 02:44:51;;;;;;;6.40;1.50;;;;;;;5.03;100.00;99200.31;5299968;28;20709;-77
2023/01/16 02:47:37;;;;;;;4.70;1.17;;;;;;;4.92;100.00;99189.25;5305466;28;20051;-75
2023/01/16 02:50:26;;;;;;;9.02;2.10;;;;;;;4.96;100.00;99178.47;5305718;28;20111;-76
2023/01/16 02:53:14;;;;;;;6.22;2.10;;;;;;;4.97;100.00;99179.31;5303476;28;20143;-76
2023/01/16 02:55:52;;;;;;;6.88;1.27;;;;;;;4.88;100.00;99162.75;5307327;28;20515;-77
2023/01/16 02:58:26;;;;;;;3.88;1.30;;;;;;;4.73;100.00;99151.94;5288673;28;20031;-76
2023/01/16 03:00:59;;;;;;;9.57;1.63;;;;;;;4.76;100.00;99161.25;5307253;28;20572;-75
2023/01/16 03:03:31;;;;;;;5.55;1.65;;;;;;;4.70;100.00;99151.38;5306850;28;20032;-77
2023/01/16 03:06:29;;;;;;;4.65;1.33;;;;;;;4.96;100.00;99138.72;5302761;28;20377;-77
2023/01/16 03:09:25;;;;;;;4.63;1.48;;;;;;;4.97;100.00;99132.59;5305117;28;20043;-76
2023/01/16 03:12:23;;;;;;;5.30;1.50;;;;;;;4.87;100.00;99124.78;5305120;28;20170;-76
2023/01/16 03:14:58;;;;;;;4.88;1.70;;;;;;;4.80;100.00;99105.53;5302367;28;20093;-77
2023/01/16 03:17:52;;;;;;;5.15;1.60;;;;;;;4.77;100.00;99108.38;5305317;28;20046;-76
2023/01/16 03:20:35;;;;;;;6.40;2.05;;;;;;;4.95;100.00;99088.59;5307248;28;20055;-76
2023/01/16 03:23:21;;;;;;;4.82;1.23;;;;;;;4.94;100.00;99094.75;5308343;28;20071;-77
2023/01/16 03:25:59;;;;;;;5.53;1.38;;;;;;;4.82;100.00;99065.53;5306952;28;20024;-77
2023/01/16 03:28:40;;;;;;;4.13;1.27;;;;;;;4.90;100.00;99075.22;5306560;28;20071;-75
2023/01/16 03:31:33;;;;;;;5.78;1.40;;;;;;;4.83;100.00;99069.75;5301730;28;20860;-77
2023/01/16 03:34:20;;;;;;;4.70;1.30;;;;;;;4.94;100.00;99050.63;5305579;28;20564;-77
2023/01/16 03:37:18;;;;;;;5.93;1.33;;;;;;;4.95;100.00;99054.03;5303644;28;20032;-76
2023/01/16 03:39:59;;;;;;;4.57;1.08;;;;;;;4.93;100.00;99041.22;5304954;28;20077;-75
2023/01/16 03:42:37;;;;;;;3.85;1.60;;;;;;;4.91;100.00;99031.94;5308105;28;20412;-75
2023/01/16 03:45:38;;;;;;;4.25;1.58;;;;;;;5.09;100.00;99025.06;5308572;28;20027;-77
2023/01/16 03:48:19;;;;;;;5.32;1.20;;;;;;;4.90;100.00;99018.13;5307497;28;20039;-75
2023/01/16 03:50:55;;;;;;;4.00;1.48;;;;;;;4.90;100.00;99006.94;5306779;28;20042;-75
2023/01/16 03:53:32;;;;;;;7.80;1.70;;;;;;;4.92;100.00;98990.25;5304637;28;20028;-79
2023/01/16 03:56:40;;;;;;;7.63;1.42;;;;;;;5.18;100.00;98961.91;5305246;28;20028;-75
2023/01/16 03:59:11;;;;;;;5.72;1.77;;;;;;;4.89;100.00;98967.22;5273468;28;20046;-74
2023/01/16 04:01:49;;;;;;;4.82;1.33;;;;;;;4.93;100.00;98952.19;5309839;28;20054;-74
2023/01/16 04:04:34;;;;;;;5.60;1.55;;;;;;;4.93;100.00;98954.78;5305622;28;20455;-74
2023/01/16 04:07:17;;;;;;;6.72;1.80;;;;;;;4.94;100.00;98939.06;5304045;28;20022;-75
2023/01/16 04:09:56;;;;;;;6.82;1.30;;;;;;;5.00;100.00;98940.25;5302281;28;20055;-75
2023/01/16 04:12:32;;;;;;;6.35;1.60;;;;;;;4.91;100.00;98934.13;5308526;28;20158;-78
2023/01/16 04:15:06;;;;;;;8.95;2.50;;;;;;;4.84;100.00;98912.31;5310005;28;20427;-78
2023/01/16 04:17:39;;;;;;;9.05;2.20;;;;;;;4.91;100.00;98909.97;5304974;28;20050;-75
2023/01/16 04:20:11;;;;;;;11.07;2.38;;;;;;;4.91;100.00;98909.97;5307756;28;20043;-75
2023/01/16 04:22:47;;;;;;;8.55;2.67;;;;;;;4.97;100.00;98899.84;5305486;28;20362;-79
2023/01/16 04:25:19;;;;;;;6.20;2.03;;;;;;;4.95;100.00;98891.38;5308255;28;20024;-75
2023/01/16 04:27:50;;;;;;;6.13;1.73;;;;;;;4.93;100.00;98869.97;5286444;28;20034;-75
2023/01/16 04:30:21;;;;;;;8.13;1.83;;;;;;;4.97;100.00;98860.94;5292493;28;20031;-74
2023/01/16 04:32:53;;;;;;;5.13;1.50;;;;;;;5.02;100.00;98860.50;5308972;28;20028;-75
2023/01/16 04:35:24;;;;;;;4.97;1.40;;;;;;;5.03;100.00;98857.75;5306966;28;20052;-78
2023/01/16 04:37:56;;;;;;;9.27;2.05;;;;;;;4.96;100.00;98835.91;5304257;28;20027;-75
2023/01/16 04:40:27;;;;;;;8.23;1.77;;;;;;;5.02;100.00;98830.16;5287966;28;20024;-76
2023/01/16 04:42:58;;;;;;;3.97;1.65;;;;;;;5.04;100.00;98820.47;5305935;28;20035;-77
2023/01/16 04:45:30;;;;;;;4.90;1.33;;;;;;;5.05;100.00;98803.13;5305083;28;20473;-77
2023/01/16 04:48:01;;;;;;;7.68;1.80;;;;;;;5.16;100.00;98804.69;5306473;28;20488;-75
2023/01/16 04:50:32;;;;;;;6.13;1.55;;;;;;;5.12;100.00;98791.19;5302972;28;20064;-78
2023/01/16 04:53:04;;;;;;;4.32;1.63;;;;;;;5.16;100.00;98778.75;5296275;28;20080;-75
2023/01/16 04:55:35;;;;;;;5.60;1.52;;;;;;;5.15;100.00;98772.72;5284199;28;20058;-77
2023/01/16 04:58:06;;;;;;;6.60;1.85;;;;;;;5.15;100.00;98759.72;5310643;28;20500;-76
2023/01/16 05:00:37;;;;;;;4.07;1.63;;;;;;;5.20;100.00;98754.94;5308641;28;20451;-76
2023/01/16 05:03:09;;;;;;;4.15;1.33;;;;;;;5.23;100.00;98741.66;5305161;28;20044;-76
2023/01/16 05:05:40;;;;;;;6.30;1.38;;;;;;;5.24;100.00;98729.50;5304670;28;20031;-76
2023/01/16 05:08:17;;;;;;;6.50;1.80;;;;;;;5.26;100.00;98722.38;5306809;28;20027;-75
2023/01/16 05:10:48;;;;;;;5.30;1.60;;;;;;;5.35;100.00;98711.09;5304347;28;20107;-77
2023/01/16 05:13:21;;;;;;;5.93;1.48;;;;;;;5.35;100.00;98705.91;5287674;28;20111;-75
2023/01/16 05:15:52;;;;;;;4.80;1.20;;;;;;;5.36;100.00;98694.56;5305492;28;20028;-76
2023/01/16 05:18:24;;;;;;;3.30;1.30;;;;;;;5.42;100.00;98699.16;5307853;28;20081;-76
2023/01/16 05:20:55;;;;;;;4.10;1.45;;;;;;;5.42;100.00;98680.97;5302425;28;20040;-76
2023/01/16 05:23:27;;;;;;;6.35;1.35;;;;;;;5.39;100.00;98668.28;5303722;28;20043;-76
2023/01/16 05:26:01;;;;;;;5.65;1.30;;;;;;;5.50;100.00;98667.25;5304171;28;20556;-76
2023/01/16 05:28:34;;;;;;;6.63;1.50;;;;;;;5.44;100.00;98654.84;5288354;28;20073;-77
2023/01/16 05:31:06;;;;;;;4.07;1.42;;;;;;;5.44;100.00;98636.69;5302052;28;20108;-76
2023/01/16 05:33:37;;;;;;;8.77;2.22;;;;;;;5.48;100.00;98633.63;5304663;28;20066;-77
2023/01/16 05:36:08;;;;;;;6.50;1.63;;;;;;;5.49;100.00;98611.91;5304866;28;20430;-77
2023/01/16 05:38:40;;;;;;;4.32;1.52;;;;;;;5.51;100.00;98611.72;5304498;28;20062;-77
2023/01/16 05:41:11;;;;;;;5.85;2.17;;;;;;;5.49;100.00;98585.94;5305086;28;20028;-76
2023/01/16 05:43:42;;;;;;;8.07;1.52;;;;;;;5.49;100.00;98578.13;5286355;28;20099;-77
2023/01/16 05:46:14;;;;;;;5.15;1.88;;;;;;;5.58;100.00;98586.78;5308974;28;20016;-77
2023/01/16 05:48:45;;;;;;;6.18;1.50;;;;;;;5.59;100.00;98580.59;5303797;28;20034;-76
2023/01/16 05:51:16;;;;;;;8.77;1.83;;;;;;;5.58;100.00;98572.00;5301387;28;20442;-77
2023/01/16 05:53:51;;;;;;;5.53;1.83;;;;;;;5.65;100.00;98561.81;5306928;28;20531;-75
2023/01/16 05:56:23;;;;;;;5.53;1.38;;;;;;;5.62;100.00;98551.72;5309481;28;20447;-77
2023/01/16 05:58:56;;;;;;;4.18;1.25;;;;;;;5.69;100.00;98552.75;5312077;28;20056;-77
2023/01/16 06:01:27;;;;;;;5.10;1.40;;;;;;;5.68;100.00;98550.28;5307736;28;20035;-77
2023/01/16 06:03:58;;;;;;;4.97;1.30;;;;;;;5.67;100.00;98549.47;5308860;28;20065;-75
2023/01/16 06:06:30;;;;;;;4.20;1.10;;;;;;;5.66;100.00;98534.88;5309000;28;20035;-76
2023/01/16 06:09:01;;;;;;;4.75;1.40;;;;;;;5.59;100.00;98539.06;5307858;28;20027;-75
2023/01/16 06:11:32;;;;;;;5.28;1.48;;;;;;;5.69;100.00;98534.56;5308166;28;20031;-77
2023/01/16 06:14:04;;;;;;;4.63;1.25;;;;;;;5.70;100.00;98523.19;5313322;28;20019;-78
2023/01/16 06:16:35;;;;;;;4.57;1.25;;;;;;;5.67;100.00;98510.50;5306240;28;20016;-77
2023/01/16 06:19:07;;;;;;;7.20;1.50;;;;;;;5.61;100.00;98498.97;5313838;28;20028;-77
2023/01/16 06:21:39;;;;;;;4.57;1.30;;;;;;;5.70;100.00;98505.00;5306622;28;20163;-77
2023/01/16 06:24:11;;;;;;;5.35;1.27;;;;;;;5.72;100.00;98497.88;5309484;28;20107;-75
2023/01/16 06:26:42;;;;;;;7.82;1.85;;;;;;;5.67;100.00;98488.91;5305669;28;20051;-74
2023/01/16 06:29:13;;;;;;;2.08;1.10;;;;;;;5.70;100.00;98478.22;5295083;28;20037;-77
2023/01/16 06:31:44;;;;;;;5.00;1.70;;;;;;;5.68;100.00;98473.16;5308232;28;20024;-77
2023/01/16 06:34:16;;;;;;;3.50;0.90;;;;;;;5.64;100.00;98463.25;5307290;28;20024;-77
2023/01/16 06:36:48;;;;;;;4.50;1.27;;;;;;;5.68;100.00;98462.78;5305806;28;20031;-77
2023/01/16 06:39:19;;;;;;;3.95;1.55;;;;;;;5.67;100.00;98452.56;5306922;28;20094;-77
2023/01/16 06:41:51;;;;;;;4.88;1.80;;;;;;;5.62;100.00;98440.03;5305373;28;20056;-76
2023/01/16 06:44:22;;;;;;;6.47;2.33;;;;;;;5.66;100.00;98419.75;5293623;28;20031;-75
2023/01/16 06:46:53;;;;;;;5.53;1.20;;;;;;;5.68;100.00;98425.59;5310822;28;20025;-78
2023/01/16 06:49:24;;;;;;;4.07;1.42;;;;;;;5.66;100.00;98396.38;5306410;28;20085;-76
2023/01/16 06:51:56;;;;;;;4.20;0.98;;;;;;;5.64;100.00;98380.94;5306621;28;20088;-76
2023/01/16 06:54:27;;;;;;;7.25;1.25;;;;;;;5.71;100.00;98375.94;5307305;28;20020;-75
2023/01/16 06:56:58;;;;;;;3.15;1.10;;;;;;;5.59;100.00;98355.44;5288074;28;20032;-79
2023/01/16 06:59:30;;;;;;;4.57;1.30;;;;;;;5.66;100.00;98349.63;5307694;28;20032;-77
2023/01/16 07:02:01;;;;;;;4.30;1.40;;;;;;;5.78;100.00;98345.75;5303509;28;20436;-76
2023/01/16 07:04:32;;;;;;;5.72;0.82;;;;;;;5.67;100.00;98333.06;5309434;28;20027;-78
2023/01/16 07:07:03;;;;;;;4.18;1.20;;;;;;;5.66;100.00;98332.25;5289626;28;20018;-75
2023/01/16 07:09:37;;;;;;;5.32;1.35;;;;;;;5.66;100.00;98308.88;5305316;28;20550;-75
2023/01/16 07:12:09;;;;;;;3.45;0.90;;;;;;;5.66;100.00;98305.47;5307444;28;20439;-76
2023/01/16 07:23:31;;;;;;;4.03;0.98;;;;;;;5.74;100.00;98269.09;5307384;28;20039;-77
2023/01/16 07:26:05;;;;;;;5.03;1.00;;;;;;;5.71;100.00;98251.25;5306924;28;20059;-76
2023/01/16 07:28:37;;;;;;;4.88;1.17;;;;;;;5.60;100.00;98247.19;5308442;28;20318;-75
2023/01/16 07:31:09;;;;;;;5.47;1.02;;;;;;;5.70;100.00;98252.22;5302200;28;20050;-75
2023/01/16 07:33:40;;;;;;;3.50;1.20;;;;;;;5.61;100.00;98234.03;5298277;28;20024;-75
2023/01/16 07:36:11;;;;;;;4.03;0.95;;;;;;;5.72;100.00;98232.91;5301411;28;20023;-79
2023/01/16 07:38:43;;;;;;;3.83;0.90;;;;;;;5.65;100.00;98233.72;5304108;28;20038;-75
2023/01/16 07:41:14;;;;;;;3.08;1.02;;;;;;;5.57;100.00;98227.56;5301957;28;20111;-76
2023/01/16 07:43:45;;;;;;;3.08;1.00;;;;;;;5.65;100.00;98224.16;5304532;28;20372;-75
2023/01/16 07:46:17;;;;;;;3.42;1.00;;;;;;;5.67;100.00;98213.56;5303509;28;20073;-75
2023/01/16 07:48:50;;;;;;;4.20;1.08;;;;;;;5.57;100.00;98205.97;5304489;28;20033;-76
2023/01/16 07:51:22;;;;;;;;;;;;;;;6.17;100.00;98217.75;5299483;28;20028;-76
2023/01/16 07:53:53;;;;;;;4.10;0.85;;;;;;;5.75;100.00;98190.19;5303931;28;19926;-75
2023/01/16 07:56:24;;;;;;;4.07;1.00;;;;;;;5.72;100.00;98191.34;5305069;28;20072;-76
2023/01/16 07:58:57;;;;;;;4.03;0.90;;;;;;;5.66;100.00;98180.78;5305764;28;20031;-75
2023/01/16 08:01:28;;;;;;;5.65;1.58;;;;;;;5.69;100.00;98170.09;5299921;28;20129;-77
2023/01/16 08:04:00;;;;;;;3.05;0.90;;;;;;;5.68;100.00;98160.66;5303281;28;20031;-76
2023/01/16 08:06:31;;;;;;;3.70;1.58;;;;;;;5.71;100.00;98166.31;5300799;28;20373;-76
2023/01/16 08:09:02;;;;;;;4.97;1.27;;;;;;;5.71;100.00;98155.94;5304573;28;20591;-75
2023/01/16 08:11:38;;;;;;;3.78;1.00;;;;;;;5.69;100.00;98139.72;5303579;28;20082;-75
2023/01/16 08:14:09;;;;;;;3.15;1.05;;;;;;;5.76;100.00;98142.47;5305767;28;20372;-76
2023/01/16 08:16:41;;;;;;;3.13;0.90;;;;;;;5.74;100.00;98132.22;5301427;28;20040;-75
2023/01/16 08:19:12;;;;;;;3.30;1.00;;;;;;;5.74;100.00;98136.63;5298709;28;20035;-76
2023/01/16 08:21:44;;;;;;;2.90;1.00;;;;;;;5.76;100.00;98135.50;5293775;28;20032;-76
2023/01/16 08:24:15;;;;;;;5.28;1.08;;;;;;;5.78;100.00;98114.53;5307453;28;20509;-76
2023/01/16 08:26:47;;;;;;;3.88;0.98;;;;;;;5.77;100.00;98111.13;5304588;28;20024;-77
2023/01/16 08:29:19;;;;;;;4.00;1.70;;;;;;;5.75;100.00;98105.28;5304946;28;20118;-77
2023/01/16 08:31:51;;;;;;;2.85;1.00;;;;;;;5.84;100.00;98104.28;5300781;28;20034;-74
2023/01/16 08:34:22;;;;;;;3.20;0.90;;;;;;;5.87;100.00;98097.91;5286318;28;20461;-80
2023/01/16 08:36:53;;;;;;;3.47;1.08;;;;;;;5.80;100.00;98076.22;5303010;28;20443;-74
2023/01/16 08:39:27;;;;;;;5.20;1.10;;;;;;;5.86;100.00;98080.72;5304641;28;20074;-80
2023/01/16 08:53:18;;;;;;;2.58;1.20;;;;;;;5.90;100.00;98071.63;5307667;28;20036;-75
2023/01/16 08:55:49;;;;;;;2.45;0.90;;;;;;;5.83;100.00;98068.06;5303712;28;20023;-75
2023/01/16 08:58:21;;;;;;;3.08;1.00;;;;;;;5.95;100.00;98066.78;5307726;28;20024;-75
2023/01/16 09:00:53;;;;;;;4.15;0.90;;;;;;;5.94;100.00;98059.13;5307068;28;20078;-75
2023/01/16 09:03:24;;;;;;;2.92;0.93;;;;;;;5.91;100.00;98068.06;5301110;28;20626;-78
2023/01/16 09:05:55;;;;;;;3.17;1.20;;;;;;;5.98;100.00;98063.81;5305421;28;20077;-78
2023/01/16 09:08:26;;;;;;;1.92;0.80;;;;;;;5.91;100.00;98060.25;5304024;28;20107;-78
2023/01/16 09:13:48;;;;;;;3.17;1.00;;;;;;;5.96;100.00;98054.59;5305017;28;20036;-76
2023/01/16 09:16:22;;;;;;;1.25;0.75;;;;;;;5.97;100.00;98057.00;5287648;28;20032;-76
2023/01/16 09:18:54;;;;;;;1.92;0.75;;;;;;;5.96;100.00;98054.59;5285887;28;20027;-76
2023/01/16 09:21:25;;;;;;;1.67;0.68;;;;;;;5.90;100.00;98044.81;5301697;28;20044;-75
2023/01/16 09:23:56;;;;;;;1.30;0.50;;;;;;;5.94;100.00;98041.75;5306915;28;20438;-75
2023/01/16 09:26:28;;;;;;;1.23;0.50;;;;;;;5.94;100.00;98046.13;5303296;28;20396;-76
2023/01/16 09:28:59;;;;;;;2.40;0.70;;;;;;;5.98;100.00;98045.63;5307172;28;20039;-76
2023/01/16 09:31:31;;;;;;;1.33;0.50;;;;;;;5.99;100.00;98033.47;5310618;28;20461;-76
2023/01/16 09:34:02;;;;;;;0.70;0.40;;;;;;;6.02;100.00;98031.34;5310233;28;20388;-75
2023/01/16 09:36:33;;;;;;;1.40;0.63;;;;;;;6.03;100.00;98034.75;5308828;28;20575;-77
2023/01/16 09:39:04;;;;;;;1.02;0.57;;;;;;;6.02;100.00;98025.31;5309024;28;20020;-76
2023/01/16 09:44:47;;;;;;;1.00;0.50;;;;;;;6.14;100.00;98031.75;5306346;28;20040;-77
2023/01/16 09:47:24;;;;;;;3.92;0.77;;;;;;;6.16;100.00;98018.56;5311018;28;20028;-76
2023/01/16 09:50:03;;;;;;;1.42;0.50;;;;;;;6.15;100.00;98014.38;5313385;28;20497;-76
2023/01/16 09:58:44;;;;;;;0.52;0.30;;;;;;;6.25;100.00;98009.75;5306601;28;20285;-76
2023/01/16 10:01:22;;;;;;;1.38;0.40;;;;;;;6.23;100.00;97996.91;5308059;28;20392;-77
2023/01/16 10:04:09;;;;;;;1.15;0.40;;;;;;;6.34;100.00;98000.91;5308010;28;20038;-76
2023/01/16 10:06:54;;;;;;;2.03;0.40;;;;;;;6.34;100.00;98000.91;5291007;28;20019;-75
2023/01/16 10:09:47;;;;;;;1.67;0.50;;;;;;;6.32;100.00;97997.66;5290461;28;20042;-77
2023/01/16 10:12:19;;;;;;;1.17;0.82;;;;;;;6.38;100.00;97991.00;5305194;28;20107;-75
2023/01/16 10:15:30;;;;;;;1.88;0.68;;;;;;;6.62;100.00;97982.19;5311426;28;20019;-79
2023/01/16 10:18:23;;;;;;;1.55;0.50;;;;;;;6.66;100.00;97973.03;5300749;28;20477;-75
2023/01/16 10:21:25;;;;;;;1.20;0.60;;;;;;;6.85;100.00;97966.53;5302372;28;20047;-77
2023/01/16 10:24:22;;;;;;;1.70;0.50;;;;;;;6.99;100.00;97957.94;5306324;28;20477;-78
2023/01/16 10:27:18;;;;;;;1.73;0.47;;;;;;;6.85;100.00;97958.72;5302134;28;20072;-75
2023/01/16 10:29:56;;;;;;;0.95;0.47;;;;;;;6.89;100.00;97950.38;5304705;28;20023;-77
2023/01/16 10:32:37;;;;;;;2.45;0.40;;;;;;;6.95;100.00;97941.88;5305858;28;20062;-75
2023/01/16 10:35:26;;;;;;;1.40;0.50;;;;;;;6.98;100.00;97928.50;5309158;28;20473;-75
2023/01/16 10:38:25;;;;;;;1.10;0.60;;;;;;;6.98;100.00;97940.72;5306967;28;20024;-75
2023/01/16 10:40:58;;;;;;;1.15;0.60;;;;;;;6.97;100.00;97924.31;5306193;28;20016;-76
2023/01/16 10:49:26;;;;;;;1.63;0.40;;;;;;;7.09;100.00;97918.66;5306749;28;20127;-79
2023/01/16 10:52:02;;;;;;;1.05;0.40;;;;;;;6.99;100.00;97898.88;5307520;28;20107;-76
2023/01/16 10:54:33;;;;;;;1.17;0.50;;;;;;;6.96;100.00;97907.03;5306154;28;20043;-77
2023/01/16 10:57:15;;;;;;;0.90;0.47;;;;;;;7.11;100.00;97896.63;5307488;28;20028;-77
2023/01/16 10:59:51;;;;;;;1.35;0.43;;;;;;;7.03;100.00;97894.94;5310046;28;20085;-77
2023/01/16 11:02:33;;;;;;;1.35;0.45;;;;;;;7.13;100.00;97878.25;5308447;28;20090;-76
2023/01/16 11:05:24;;;;;;;0.93;0.40;;;;;;;7.23;100.00;97871.75;5307633;28;20089;-76
2023/01/16 11:08:07;;;;;;;1.20;0.47;;;;;;;7.14;100.00;97865.03;5306302;28;20028;-77
2023/01/16 11:10:44;;;;;;;1.25;0.45;;;;;;;7.02;100.00;97858.69;5306090;28;20020;-76
2023/01/16 11:19:22;;;;;;;1.27;0.55;;;;;;;7.18;100.00;97852.47;5305716;28;20508;-77
2023/01/16 11:22:08;;;;;;;1.67;0.55;;;;;;;7.17;100.00;97835.25;5299615;28;20034;-77
2023/01/16 11:24:40;;;;;;;1.48;0.60;;;;;;;7.16;100.00;97831.00;5307687;28;20466;-76
2023/01/16 11:27:20;;;;;;;3.85;0.80;;;;;;;7.27;100.00;97822.72;5308899;28;20104;-76
2023/01/16 11:29:54;;;;;;;1.27;0.50;;;;;;;7.26;100.00;97824.53;5287511;28;20024;-76
2023/01/16 11:32:28;;;;;;;1.27;0.63;;;;;;;7.18;100.00;97808.22;5288106;28;20036;-76
2023/01/16 11:34:59;;;;;;;1.83;0.60;;;;;;;7.25;100.00;97811.69;5309861;28;20019;-75
2023/01/16 11:37:31;;;;;;;1.40;0.50;;;;;;;7.26;100.00;97806.28;5311582;28;20038;-75
2023/01/16 11:40:04;;;;;;;0.90;0.40;;;;;;;7.33;100.00;97795.97;5290966;28;20031;-75
2023/01/16 11:48:25;;;;;;;1.48;0.45;;;;;;;7.15;100.00;97777.31;5305936;28;20035;-75
2023/01/16 11:50:58;;;;;;;1.90;0.57;;;;;;;7.21;100.00;97784.41;5302984;28;20081;-75
2023/01/16 11:53:32;;;;;;;1.27;0.63;;;;;;;7.16;100.00;97766.75;5311389;28;20034;-75
2023/01/16 11:56:37;;;;;;;2.50;0.57;;;;;;;7.52;100.00;97776.31;5306878;28;20031;-75
2023/01/16 11:59:26;;;;;;;2.55;0.70;;;;;;;7.31;100.00;97764.06;5303864;28;20101;-77
2023/01/16 12:02:25;;;;;;;2.58;0.65;;;;;;;7.31;100.00;97756.25;5302387;28;20047;-75
2023/01/16 12:08:21;;;;;;;1.08;0.55;;;;;;;7.41;100.00;97748.16;5307306;28;20497;-75
2023/01/16 12:11:22;;;;;;;3.72;0.73;;;;;;;7.23;100.00;97723.34;5308597;28;20024;-75
2023/01/16 12:14:17;;;;;;;1.42;0.60;;;;;;;7.34;100.00;97729.84;5304109;28;20046;-76
2023/01/16 12:17:12;;;;;;;1.33;0.60;;;;;;;7.47;100.00;97719.56;5281471;28;20020;-76
2023/01/16 12:20:09;;;;;;;1.15;0.50;;;;;;;7.50;100.00;97724.41;5303691;28;20581;-75
2023/01/16 12:22:40;;;;;;;0.68;0.40;;;;;;;7.36;100.00;97727.09;5306603;28;20032;-75
2023/01/16 12:25:31;;;;;;;1.08;0.40;;;;;;;7.44;100.00;97713.94;5303809;28;20382;-76
2023/01/16 12:28:30;;;;;;;0.70;0.40;;;;;;;7.54;100.00;97707.41;5303412;28;20034;-76
2023/01/16 12:31:35;;;;;;;1.23;0.50;;;;;;;7.71;100.00;97700.13;5301685;28;20062;-79
2023/01/16 12:34:24;;;;;;;1.63;0.32;;;;;;;7.70;100.00;97695.91;5305753;28;20085;-77
2023/01/16 12:37:14;;;;;;;0.80;0.40;;;;;;;7.66;100.00;97693.88;5306995;28;20042;-76
2023/01/16 12:40:12;;;;;;;0.60;0.40;;;;;;;7.87;100.00;97682.59;5303710;28;20027;-77
2023/01/16 12:43:20;;;;;;;0.80;0.40;;;;;;;7.90;100.00;97685.63;5301748;28;20042;-76
2023/01/16 12:45:56;;;;;;;1.15;0.35;;;;;;;7.88;100.00;97673.78;5299131;28;20135;-76
2023/01/16 12:48:47;;;;;;;1.02;0.40;;;;;;;7.91;100.00;97666.38;5304974;28;20032;-77
2023/01/16 12:51:40;;;;;;;0.52;0.30;;;;;;;8.07;100.00;97665.28;5303240;28;20032;-77
2023/01/16 12:54:17;;;;;;;0.68;0.38;;;;;;;7.94;100.00;97657.38;5301905;28;20035;-75
2023/01/16 12:57:27;;;;;;;1.08;0.43;;;;;;;8.15;100.00;97651.28;5303646;28;20023;-78
2023/01/16 13:00:09;;;;;;;0.90;0.30;;;;;;;8.06;100.00;97637.59;5303727;28;20027;-75
2023/01/16 13:02:53;;;;;;;1.85;0.50;;;;;;;8.11;100.00;97637.03;5303532;28;20477;-76
2023/01/16 13:05:33;;;;;;;1.02;0.47;;;;;;;8.03;100.00;97628.38;5303144;28;20050;-75
2023/01/16 13:08:21;;;;;;;1.13;0.47;;;;;;;8.16;100.00;97632.84;5304202;28;20033;-74
2023/01/16 13:13:54;;;;;;;1.08;0.60;;;;;;;7.93;100.00;97627.91;5303080;28;20028;-75
2023/01/16 13:16:49;;;;;;;0.50;0.28;;;;;;;8.09;100.00;97629.38;5303904;28;20047;-75
2023/01/16 13:19:23;;;;;;;1.02;0.40;;;;;;;7.96;100.00;97627.53;5300812;28;21343;-74